createdAt,value
2018-07-13T00:00:57.537Z,88.33
2018-07-13T00:01:57.523Z,89.01
2018-07-13T00:02:57.529Z,89.68
2018-07-13T00:03:57.597Z,89.39
2018-07-13T00:04:57.563Z,89.20
2018-07-13T00:05:57.589Z,89.58
2018-07-13T00:06:57.582Z,89.68
2018-07-13T00:07:57.572Z,88.81
2018-07-13T00:08:57.628Z,89.68
2018-07-13T00:09:57.637Z,89.39
2018-07-13T00:10:57.647Z,89.01
2018-07-13T00:11:57.646Z,89.10
2018-07-13T00:12:57.678Z,89.01
2018-07-13T00:13:57.671Z,89.39
2018-07-13T00:14:57.678Z,89.01
2018-07-13T00:15:57.734Z,89.58
2018-07-13T00:16:57.684Z,90.16
2018-07-13T00:17:57.716Z,89.78
2018-07-13T00:18:57.726Z,89.49
2018-07-13T00:19:57.743Z,89.20
2018-07-13T00:20:57.807Z,89.87
2018-07-13T00:21:57.763Z,89.39
2018-07-13T00:22:57.806Z,89.68
2018-07-13T00:23:57.797Z,89.10
2018-07-13T00:24:57.793Z,89.49
2018-07-13T00:25:57.816Z,89.39
2018-07-13T00:26:57.824Z,89.10
2018-07-13T00:27:57.859Z,89.49
2018-07-13T00:28:57.838Z,88.91
2018-07-13T00:29:57.884Z,89.01
2018-07-13T00:30:57.873Z,88.71
2018-07-13T00:31:57.893Z,88.81
2018-07-13T00:32:57.966Z,88.91
2018-07-13T00:33:57.965Z,88.33
2018-07-13T00:34:57.930Z,89.10
2018-07-13T00:35:57.977Z,88.33
2018-07-13T00:36:57.931Z,88.04
2018-07-13T00:37:57.955Z,88.71
2018-07-13T00:38:58.012Z,89.01
2018-07-13T00:39:57.989Z,88.33
2018-07-13T00:40:58.011Z,88.33
2018-07-13T00:41:58.031Z,88.71
2018-07-13T00:42:58.020Z,88.33
2018-07-13T00:43:58.043Z,88.14
2018-07-13T00:44:58.096Z,88.53
2018-07-13T00:45:58.061Z,88.53
2018-07-13T00:46:58.097Z,88.14
2018-07-13T00:47:58.148Z,88.04
2018-07-13T00:48:58.105Z,88.14
2018-07-13T00:49:58.111Z,88.43
2018-07-13T00:50:58.190Z,88.43
2018-07-13T00:51:58.146Z,88.33
2018-07-13T00:52:58.138Z,88.43
2018-07-13T00:53:58.168Z,88.14
2018-07-13T00:54:58.170Z,88.81
2018-07-13T00:55:58.182Z,89.68
2018-07-13T00:56:58.238Z,89.20
2018-07-13T00:57:58.193Z,89.10
2018-07-13T00:58:58.199Z,89.29
2018-07-13T00:59:58.248Z,88.62
2018-07-13T01:00:58.254Z,88.81
2018-07-13T01:01:58.315Z,88.62
2018-07-13T01:02:58.373Z,89.01
2018-07-13T01:03:58.273Z,89.58
2018-07-13T01:04:58.293Z,89.39
2018-07-13T01:05:58.336Z,89.58
2018-07-13T01:06:58.347Z,89.78
2018-07-13T01:07:58.357Z,89.49
2018-07-13T01:08:58.419Z,88.71
2018-07-13T01:09:58.346Z,88.62
2018-07-13T01:10:58.364Z,89.49
2018-07-13T01:11:58.422Z,89.39
2018-07-13T01:12:58.407Z,89.39
2018-07-13T01:13:58.445Z,89.20
2018-07-13T01:14:58.425Z,89.39
2018-07-13T01:15:58.458Z,89.78
2018-07-13T01:16:58.443Z,89.68
2018-07-13T01:17:58.507Z,89.20
2018-07-13T01:18:58.489Z,89.49
2018-07-13T01:19:58.485Z,89.10
2018-07-13T01:20:58.582Z,87.95
2018-07-13T01:21:58.494Z,88.14
2018-07-13T01:22:58.513Z,87.76
2018-07-13T01:23:58.570Z,88.33
2018-07-13T01:24:58.531Z,88.81
2018-07-13T01:25:58.583Z,88.81
2018-07-13T01:26:58.570Z,88.62
2018-07-13T01:27:58.587Z,88.43
2018-07-13T01:28:58.593Z,88.24
2018-07-13T01:29:58.599Z,88.14
2018-07-13T01:30:58.633Z,88.10
2018-07-13T01:31:58.637Z,88.62
2018-07-13T01:32:58.642Z,88.81
2018-07-13T01:33:58.678Z,88.33
2018-07-13T01:34:58.662Z,89.01
2018-07-13T01:35:58.686Z,89.10
2018-07-13T01:36:58.690Z,89.35
2018-07-13T01:37:58.699Z,89.01
2018-07-13T01:38:58.778Z,88.71
2018-07-13T01:39:58.727Z,89.01
2018-07-13T01:40:58.739Z,88.81
2018-07-13T01:41:58.755Z,89.58
2018-07-13T01:42:58.768Z,88.96
2018-07-13T01:43:58.769Z,89.20
2018-07-13T01:44:58.863Z,89.01
2018-07-13T01:45:58.810Z,89.68
2018-07-13T01:46:58.827Z,89.10
2018-07-13T01:47:58.812Z,88.62
2018-07-13T01:48:58.842Z,88.62
2018-07-13T01:49:58.898Z,88.62
2018-07-13T01:50:58.859Z,88.91
2018-07-13T01:51:58.865Z,89.20
2018-07-13T01:52:58.939Z,89.10
2018-07-13T01:53:58.909Z,89.01
2018-07-13T01:54:58.918Z,88.91
2018-07-13T01:55:58.926Z,89.01
2018-07-13T01:56:58.938Z,89.01
2018-07-13T01:57:58.959Z,88.81
2018-07-13T01:58:58.993Z,88.91
2018-07-13T01:59:58.974Z,88.62
2018-07-13T02:00:58.990Z,88.57
2018-07-13T02:01:59.009Z,88.96
2018-07-13T02:02:59.064Z,88.96
2018-07-13T02:03:59.083Z,88.91
2018-07-13T02:04:59.042Z,89.15
2018-07-13T02:05:59.042Z,88.43
2018-07-13T02:06:59.057Z,88.33
2018-07-13T02:07:59.062Z,88.77
2018-07-13T02:08:59.137Z,88.96
2018-07-13T02:09:59.128Z,88.77
2018-07-13T02:10:59.145Z,88.57
2018-07-13T02:11:59.122Z,88.81
2018-07-13T02:12:59.138Z,88.33
2018-07-13T02:13:59.216Z,88.96
2018-07-13T02:14:59.173Z,88.71
2018-07-13T02:15:59.221Z,88.67
2018-07-13T02:16:59.180Z,88.48
2018-07-13T02:17:59.323Z,88.48
2018-07-13T02:18:59.204Z,88.10
2018-07-13T02:19:59.220Z,88.29
2018-07-13T02:20:59.270Z,88.29
2018-07-13T02:21:59.277Z,88.10
2018-07-13T02:22:59.258Z,88.67
2018-07-13T02:23:59.338Z,89.15
2018-07-13T02:24:59.268Z,88.57
2018-07-13T02:25:59.285Z,88.77
2018-07-13T02:26:59.352Z,88.19
2018-07-13T02:27:59.313Z,88.77
2018-07-13T02:28:59.368Z,88.39
2018-07-13T02:29:59.403Z,88.19
2018-07-13T02:30:59.357Z,88.10
2018-07-13T02:31:59.361Z,89.15
2018-07-13T02:32:59.470Z,88.24
2018-07-13T02:33:59.553Z,88.24
2018-07-13T02:34:59.425Z,88.24
2018-07-13T02:35:59.429Z,88.29
2018-07-13T02:36:59.419Z,88.10
2018-07-13T02:37:59.486Z,88.48
2018-07-13T02:38:59.607Z,88.29
2018-07-13T02:39:59.495Z,88.67
2018-07-13T02:40:59.469Z,88.10
2018-07-13T02:41:59.575Z,88.48
2018-07-13T02:42:59.495Z,88.29
2018-07-13T02:43:59.505Z,88.29
2018-07-13T02:44:59.600Z,88.57
2018-07-13T02:45:59.516Z,88.33
2018-07-13T02:46:59.575Z,88.19
2018-07-13T02:47:59.603Z,87.08
2018-07-13T02:48:59.590Z,87.23
2018-07-13T02:49:59.563Z,88.00
2018-07-13T02:50:59.598Z,88.43
2018-07-13T02:51:59.638Z,88.19
2018-07-13T02:52:59.641Z,88.10
2018-07-13T02:53:59.665Z,88.10
2018-07-13T02:54:59.649Z,88.19
2018-07-13T02:55:59.651Z,87.81
2018-07-13T02:56:59.698Z,87.42
2018-07-13T02:57:59.679Z,87.71
2018-07-13T02:58:59.731Z,87.71
2018-07-13T02:59:59.720Z,87.27
2018-07-13T03:00:59.708Z,87.42
2018-07-13T03:01:59.734Z,87.42
2018-07-13T03:02:59.754Z,87.23
2018-07-13T03:03:59.797Z,87.27
2018-07-13T03:04:59.804Z,87.81
2018-07-13T03:05:59.774Z,87.52
2018-07-13T03:06:59.788Z,87.71
2018-07-13T03:07:59.810Z,87.90
2018-07-13T03:08:59.808Z,87.33
2018-07-13T03:09:59.855Z,86.85
2018-07-13T03:10:59.912Z,87.46
2018-07-13T03:11:59.861Z,87.81
2018-07-13T03:12:59.891Z,87.13
2018-07-13T03:13:59.871Z,87.52
2018-07-13T03:14:59.928Z,87.62
2018-07-13T03:15:59.918Z,87.81
2018-07-13T03:16:59.908Z,87.18
2018-07-13T03:17:59.978Z,87.18
2018-07-13T03:18:59.945Z,87.33
2018-07-13T03:19:59.969Z,87.23
2018-07-13T03:20:59.962Z,86.94
2018-07-13T03:21:59.994Z,86.79
2018-07-13T03:23:00.012Z,87.27
2018-07-13T03:23:59.999Z,86.94
2018-07-13T03:25:00.016Z,87.08
2018-07-13T03:26:00.034Z,86.75
2018-07-13T03:27:00.046Z,86.65
2018-07-13T03:28:00.071Z,86.51
2018-07-13T03:29:00.062Z,86.36
2018-07-13T03:30:00.201Z,86.46
2018-07-13T03:31:00.099Z,86.46
2018-07-13T03:32:00.126Z,85.88
2018-07-13T03:33:00.126Z,85.88
2018-07-13T03:34:00.105Z,85.21
2018-07-13T03:35:00.189Z,85.50
2018-07-13T03:36:00.180Z,85.78
2018-07-13T03:37:00.177Z,85.31
2018-07-13T03:38:00.221Z,85.21
2018-07-13T03:39:00.169Z,84.54
2018-07-13T03:40:00.184Z,84.54
2018-07-13T03:41:00.269Z,84.54
2018-07-13T03:42:00.257Z,84.73
2018-07-13T03:43:00.225Z,84.34
2018-07-13T03:44:00.252Z,84.25
2018-07-13T03:45:00.248Z,84.16
2018-07-13T03:46:00.256Z,83.67
2018-07-13T03:47:00.308Z,83.00
2018-07-13T03:48:00.325Z,82.85
2018-07-13T03:49:00.294Z,83.00
2018-07-13T03:50:00.310Z,83.19
2018-07-13T03:51:00.318Z,82.75
2018-07-13T03:52:00.387Z,83.19
2018-07-13T03:53:00.391Z,83.09
2018-07-13T03:54:00.413Z,82.90
2018-07-13T03:55:00.381Z,83.29
2018-07-13T03:56:00.391Z,83.04
2018-07-13T03:57:00.398Z,83.04
2018-07-13T03:58:00.442Z,82.27
2018-07-13T03:59:00.469Z,82.27
2018-07-13T04:00:00.454Z,82.27
2018-07-13T04:01:00.462Z,80.54
2018-07-13T04:02:00.463Z,80.63
2018-07-13T04:03:00.517Z,80.35
2018-07-13T04:04:00.518Z,80.25
2018-07-13T04:05:00.504Z,79.86
2018-07-13T04:06:00.525Z,79.77
2018-07-13T04:07:00.544Z,79.77
2018-07-13T04:08:00.535Z,79.48
2018-07-13T04:09:00.576Z,79.38
2018-07-13T04:10:00.609Z,79.48
2018-07-13T04:11:00.578Z,79.48
2018-07-13T04:12:00.599Z,79.38
2018-07-13T04:13:00.598Z,78.42
2018-07-13T04:14:00.596Z,78.61
2018-07-13T04:15:00.665Z,79.00
2018-07-13T04:16:00.632Z,79.77
2018-07-13T04:17:00.670Z,79.58
2018-07-13T04:18:00.649Z,78.42
2018-07-13T04:19:00.668Z,78.42
2018-07-13T04:20:00.752Z,78.33
2018-07-13T04:21:00.718Z,78.71
2018-07-13T04:22:00.701Z,78.33
2018-07-13T04:23:00.726Z,79.00
2018-07-13T04:24:00.732Z,78.03
2018-07-13T04:25:00.789Z,77.94
2018-07-13T04:26:00.813Z,78.17
2018-07-13T04:27:00.820Z,77.98
2018-07-13T04:28:00.796Z,78.36
2018-07-13T04:29:00.804Z,78.17
2018-07-13T04:30:00.822Z,77.98
2018-07-13T04:31:00.825Z,78.21
2018-07-13T04:32:01.089Z,77.59
2018-07-13T04:33:00.853Z,77.31
2018-07-13T04:34:00.884Z,77.34
2018-07-13T04:35:00.877Z,75.67
2018-07-13T04:36:00.919Z,76.38
2018-07-13T04:37:00.927Z,76.67
2018-07-13T04:38:01.007Z,75.80
2018-07-13T04:39:01.315Z,76.34
2018-07-13T04:40:00.936Z,76.18
2018-07-13T04:41:00.993Z,75.71
2018-07-13T04:42:01.010Z,76.67
2018-07-13T04:43:01.058Z,75.23
2018-07-13T04:44:01.009Z,75.90
2018-07-13T04:45:01.104Z,75.80
2018-07-13T04:46:01.042Z,76.48
2018-07-13T04:47:01.061Z,75.71
2018-07-13T04:48:01.045Z,75.80
2018-07-13T04:49:01.114Z,76.18
2018-07-13T04:50:01.110Z,75.42
2018-07-13T04:51:01.075Z,74.93
2018-07-13T04:52:01.101Z,75.32
2018-07-13T04:53:01.118Z,75.03
2018-07-13T04:54:01.142Z,76.28
2018-07-13T04:55:01.163Z,75.61
2018-07-13T04:56:01.187Z,75.26
2018-07-13T04:57:01.157Z,75.74
2018-07-13T04:58:01.180Z,74.97
2018-07-13T04:59:01.184Z,75.16
2018-07-13T05:00:01.259Z,75.07
2018-07-13T05:01:01.276Z,75.55
2018-07-13T05:02:01.289Z,74.24
2018-07-13T05:03:01.346Z,73.66
2018-07-13T05:04:01.245Z,74.05
2018-07-13T05:05:01.286Z,73.75
2018-07-13T05:06:01.277Z,73.57
2018-07-13T05:07:01.357Z,73.95
2018-07-13T05:08:01.347Z,74.24
2018-07-13T05:09:01.342Z,73.57
2018-07-13T05:10:01.349Z,73.08
2018-07-13T05:11:01.361Z,73.79
2018-07-13T05:12:01.378Z,73.60
2018-07-13T05:13:01.410Z,73.50
2018-07-13T05:14:01.398Z,72.73
2018-07-13T05:15:01.420Z,72.54
2018-07-13T05:16:01.425Z,72.96
2018-07-13T05:17:01.427Z,72.86
2018-07-13T05:18:01.470Z,72.09
2018-07-13T05:19:01.450Z,71.12
2018-07-13T05:20:01.526Z,71.45
2018-07-13T05:21:01.488Z,71.36
2018-07-13T05:22:01.496Z,71.16
2018-07-13T05:23:01.531Z,70.48
2018-07-13T05:24:01.539Z,70.81
2018-07-13T05:25:01.592Z,70.52
2018-07-13T05:26:01.552Z,69.94
2018-07-13T05:27:01.635Z,68.98
2018-07-13T05:28:01.595Z,68.20
2018-07-13T05:29:01.617Z,68.59
2018-07-13T05:30:01.650Z,68.72
2018-07-13T05:31:01.631Z,68.91
2018-07-13T05:32:01.689Z,68.17
2018-07-13T05:33:01.671Z,68.08
2018-07-13T05:34:01.828Z,67.01
2018-07-13T05:35:01.717Z,67.59
2018-07-13T05:36:01.717Z,66.88
2018-07-13T05:37:01.775Z,66.82
2018-07-13T05:38:01.767Z,67.21
2018-07-13T05:39:01.820Z,67.43
2018-07-13T05:40:01.770Z,67.53
2018-07-13T05:41:01.832Z,65.40
2018-07-13T05:42:01.816Z,66.47
2018-07-13T05:43:01.833Z,65.40
2018-07-13T05:44:01.880Z,65.92
2018-07-13T05:45:01.926Z,64.82
2018-07-13T05:46:01.885Z,65.63
2018-07-13T05:47:01.881Z,63.37
2018-07-13T05:48:01.909Z,65.01
2018-07-13T05:49:01.944Z,64.72
2018-07-13T05:50:01.975Z,65.50
2018-07-13T05:51:01.957Z,63.56
2018-07-13T05:52:01.964Z,64.24
2018-07-13T05:53:01.984Z,64.92
2018-07-13T05:54:02.033Z,65.40
2018-07-13T05:55:02.084Z,65.30
2018-07-13T05:56:02.057Z,65.20
2018-07-13T05:57:02.042Z,65.69
2018-07-13T05:58:02.234Z,65.01
2018-07-13T05:59:02.087Z,65.37
2018-07-13T06:00:02.125Z,65.08
2018-07-13T06:01:02.115Z,65.17
2018-07-13T06:02:02.156Z,65.47
2018-07-13T06:03:02.144Z,66.01
2018-07-13T06:04:02.165Z,66.50
2018-07-13T06:05:02.197Z,66.30
2018-07-13T06:06:02.191Z,66.88
2018-07-13T06:07:02.223Z,67.08
2018-07-13T06:08:02.227Z,66.75
2018-07-13T06:09:02.261Z,66.85
2018-07-13T06:10:02.244Z,66.94
2018-07-13T06:11:02.262Z,67.82
2018-07-13T06:12:02.411Z,67.62
2018-07-13T06:13:02.287Z,67.52
2018-07-13T06:14:02.326Z,68.01
2018-07-13T06:15:02.405Z,68.59
2018-07-13T06:16:02.362Z,68.68
2018-07-13T06:17:02.384Z,68.68
2018-07-13T06:18:02.395Z,68.78
2018-07-13T06:19:02.410Z,68.65
2018-07-13T06:20:02.427Z,69.23
2018-07-13T06:21:02.589Z,69.04
2018-07-13T06:22:02.462Z,69.13
2018-07-13T06:23:02.436Z,69.23
2018-07-13T06:24:02.488Z,69.62
2018-07-13T06:25:02.489Z,68.75
2018-07-13T06:26:02.498Z,69.13
2018-07-13T06:27:02.531Z,69.62
2018-07-13T06:28:02.523Z,69.71
2018-07-13T06:29:02.520Z,70.58
2018-07-13T06:30:02.556Z,70.20
2018-07-13T06:31:02.561Z,70.29
2018-07-13T06:32:03.082Z,70.10
2018-07-13T06:33:02.580Z,70.29
2018-07-13T06:34:02.828Z,70.10
2018-07-13T06:35:02.606Z,70.10
2018-07-13T06:36:02.618Z,69.97
2018-07-13T06:37:02.676Z,71.22
2018-07-13T06:38:02.673Z,71.22
2018-07-13T06:39:02.682Z,71.12
2018-07-13T06:40:02.702Z,71.12
2018-07-13T06:41:02.692Z,70.06
2018-07-13T06:42:02.753Z,71.90
2018-07-13T06:43:02.725Z,71.12
2018-07-13T06:44:02.798Z,71.12
2018-07-13T06:45:02.777Z,71.61
2018-07-13T06:46:02.782Z,71.61
2018-07-13T06:47:02.784Z,71.51
2018-07-13T06:48:02.845Z,71.22
2018-07-13T06:49:02.871Z,71.80
2018-07-13T06:50:02.836Z,71.42
2018-07-13T06:51:02.880Z,71.90
2018-07-13T06:52:02.848Z,71.51
2018-07-13T06:53:02.873Z,71.90
2018-07-13T06:54:02.917Z,72.00
2018-07-13T06:55:02.923Z,72.28
2018-07-13T06:56:02.905Z,71.80
2018-07-13T06:57:02.941Z,72.09
2018-07-13T06:58:02.939Z,72.06
2018-07-13T06:59:03.002Z,72.15
2018-07-13T07:00:02.993Z,72.34
2018-07-13T07:01:03.031Z,72.25
2018-07-13T07:02:03.002Z,72.92
2018-07-13T07:03:03.011Z,73.02
2018-07-13T07:04:03.015Z,72.63
2018-07-13T07:05:03.037Z,72.44
2018-07-13T07:06:03.072Z,72.92
2018-07-13T07:07:03.089Z,73.02
2018-07-13T07:08:03.078Z,73.60
2018-07-13T07:09:03.145Z,73.41
2018-07-13T07:10:03.102Z,73.50
2018-07-13T07:11:03.143Z,74.18
2018-07-13T07:12:03.176Z,73.31
2018-07-13T07:13:03.154Z,73.41
2018-07-13T07:14:03.154Z,73.63
2018-07-13T07:15:03.198Z,72.63
2018-07-13T07:16:03.320Z,71.96
2018-07-13T07:17:03.224Z,73.41
2018-07-13T07:18:03.202Z,72.73
2018-07-13T07:19:03.255Z,72.60
2018-07-13T07:20:03.283Z,73.47
2018-07-13T07:21:03.292Z,73.18
2018-07-13T07:22:03.273Z,73.85
2018-07-13T07:23:03.285Z,73.95
2018-07-13T07:24:03.335Z,73.66
2018-07-13T07:25:03.311Z,74.14
2018-07-13T07:26:03.390Z,73.66
2018-07-13T07:27:03.321Z,74.58
2018-07-13T07:28:03.351Z,74.43
2018-07-13T07:29:03.378Z,74.58
2018-07-13T07:30:03.394Z,75.07
2018-07-13T07:31:03.421Z,74.97
2018-07-13T07:32:03.401Z,75.30
2018-07-13T07:33:03.436Z,75.30
2018-07-13T07:34:03.470Z,74.82
2018-07-13T07:35:03.446Z,74.43
2018-07-13T07:36:03.504Z,74.43
2018-07-13T07:37:03.461Z,74.72
2018-07-13T07:38:03.549Z,74.62
2018-07-13T07:39:03.510Z,74.62
2018-07-13T07:40:03.519Z,73.66
2018-07-13T07:41:03.561Z,74.05
2018-07-13T07:42:03.528Z,74.30
2018-07-13T07:43:04.429Z,74.30
2018-07-13T07:44:03.671Z,74.58
2018-07-13T07:45:03.617Z,75.07
2018-07-13T07:46:03.625Z,74.88
2018-07-13T07:47:03.599Z,75.84
2018-07-13T07:48:03.617Z,75.74
2018-07-13T07:49:03.673Z,75.84
2018-07-13T07:50:03.715Z,76.03
2018-07-13T07:51:03.722Z,75.65
2018-07-13T07:52:03.694Z,76.42
2018-07-13T07:53:03.808Z,76.23
2018-07-13T07:54:03.697Z,76.51
2018-07-13T07:55:03.708Z,76.61
2018-07-13T07:56:03.768Z,76.51
2018-07-13T07:57:03.729Z,76.71
2018-07-13T07:58:03.795Z,76.90
2018-07-13T07:59:03.786Z,77.38
2018-07-13T08:00:03.766Z,76.51
2018-07-13T08:01:03.831Z,76.42
2018-07-13T08:02:03.804Z,77.19
2018-07-13T08:03:03.896Z,76.61
2018-07-13T08:04:03.819Z,76.61
2018-07-13T08:05:03.865Z,76.51
2018-07-13T08:06:03.912Z,77.38
2018-07-13T08:07:04.337Z,77.28
2018-07-13T08:08:03.912Z,77.67
2018-07-13T08:09:03.905Z,77.00
2018-07-13T08:10:03.979Z,77.38
2018-07-13T08:11:03.962Z,77.67
2018-07-13T08:12:03.934Z,77.38
2018-07-13T08:13:04.090Z,78.21
2018-07-13T08:14:04.187Z,77.73
2018-07-13T08:15:04.010Z,77.92
2018-07-13T08:16:04.049Z,77.83
2018-07-13T08:17:04.022Z,77.92
2018-07-13T08:18:04.025Z,78.44
2018-07-13T08:19:04.030Z,79.41
2018-07-13T08:20:04.044Z,79.75
2018-07-13T08:21:04.092Z,80.81
2018-07-13T08:22:04.060Z,82.06
2018-07-13T08:23:04.623Z,81.68
2018-07-13T08:24:04.075Z,81.14
2018-07-13T08:25:04.121Z,81.48
2018-07-13T08:26:04.112Z,81.72
2018-07-13T08:27:04.133Z,82.74
2018-07-13T08:28:04.184Z,82.01
2018-07-13T08:29:04.150Z,82.26
2018-07-13T08:30:04.157Z,82.83
2018-07-13T08:31:04.203Z,82.68
2018-07-13T08:32:04.185Z,82.68
2018-07-13T08:33:04.395Z,83.16
2018-07-13T08:34:04.210Z,82.78
2018-07-13T08:35:04.267Z,82.97
2018-07-13T08:36:04.244Z,83.12
2018-07-13T08:37:04.255Z,82.97
2018-07-13T08:38:04.327Z,83.36
2018-07-13T08:39:04.328Z,83.07
2018-07-13T08:40:04.354Z,83.16
2018-07-13T08:41:04.450Z,83.16
2018-07-13T08:42:04.329Z,83.55
2018-07-13T08:43:04.368Z,84.52
2018-07-13T08:44:04.440Z,84.32
2018-07-13T08:45:04.371Z,84.03
2018-07-13T08:46:04.368Z,83.07
2018-07-13T08:47:04.397Z,82.97
2018-07-13T08:48:04.417Z,83.16
2018-07-13T08:49:04.464Z,82.59
2018-07-13T08:50:04.444Z,82.49
2018-07-13T08:51:04.450Z,83.07
2018-07-13T08:52:04.496Z,82.78
2018-07-13T08:53:04.538Z,82.78
2018-07-13T08:54:04.478Z,82.78
2018-07-13T08:55:04.527Z,82.78
2018-07-13T08:56:04.553Z,82.68
2018-07-13T08:57:04.524Z,82.59
2018-07-13T08:58:04.565Z,82.97
2018-07-13T08:59:04.802Z,82.78
2018-07-13T09:00:04.619Z,81.81
2018-07-13T09:01:04.571Z,81.33
2018-07-13T09:02:04.591Z,82.01
2018-07-13T09:03:04.605Z,81.43
2018-07-13T09:04:04.896Z,81.62
2018-07-13T09:05:04.655Z,81.62
2018-07-13T09:06:04.650Z,82.01
2018-07-13T09:07:04.652Z,82.01
2018-07-13T09:08:04.699Z,82.49
2018-07-13T09:09:04.704Z,82.59
2018-07-13T09:10:04.739Z,82.39
2018-07-13T09:11:04.750Z,81.81
2018-07-13T09:12:04.716Z,82.20
2018-07-13T09:13:04.754Z,81.48
2018-07-13T09:14:04.764Z,81.10
2018-07-13T09:15:04.791Z,81.20
2018-07-13T09:16:04.771Z,81.87
2018-07-13T09:17:04.788Z,81.68
2018-07-13T09:18:04.854Z,81.20
2018-07-13T09:19:04.824Z,81.68
2018-07-13T09:20:04.819Z,81.48
2018-07-13T09:21:04.822Z,82.01
2018-07-13T09:22:04.881Z,82.59
2018-07-13T09:23:04.877Z,82.59
2018-07-13T09:24:04.966Z,81.68
2018-07-13T09:25:04.893Z,82.20
2018-07-13T09:26:04.907Z,81.81
2018-07-13T09:27:04.910Z,81.91
2018-07-13T09:28:04.929Z,80.94
2018-07-13T09:29:05.006Z,81.04
2018-07-13T09:30:04.984Z,81.24
2018-07-13T09:31:04.984Z,81.62
2018-07-13T09:32:04.997Z,81.91
2018-07-13T09:33:04.994Z,82.01
2018-07-13T09:34:05.094Z,81.43
2018-07-13T09:35:05.008Z,80.85
2018-07-13T09:36:05.015Z,80.76
2018-07-13T09:37:05.084Z,81.33
2018-07-13T09:38:05.114Z,81.24
2018-07-13T09:39:05.092Z,80.94
2018-07-13T09:40:05.098Z,80.08
2018-07-13T09:41:05.150Z,79.89
2018-07-13T09:42:05.109Z,80.85
2018-07-13T09:43:05.122Z,80.66
2018-07-13T09:44:05.278Z,80.66
2018-07-13T09:45:05.152Z,81.14
2018-07-13T09:46:05.184Z,80.08
2018-07-13T09:47:05.255Z,80.18
2018-07-13T09:48:05.214Z,80.27
2018-07-13T09:49:05.197Z,80.76
2018-07-13T09:50:05.214Z,79.41
2018-07-13T09:51:05.223Z,79.56
2018-07-13T09:52:05.278Z,79.69
2018-07-13T09:53:05.279Z,79.60
2018-07-13T09:54:05.313Z,78.02
2018-07-13T09:55:05.304Z,78.25
2018-07-13T09:56:05.340Z,77.96
2018-07-13T09:57:05.350Z,78.44
2018-07-13T09:58:05.321Z,78.83
2018-07-13T09:59:05.333Z,79.21
2018-07-13T10:00:05.391Z,78.73
2018-07-13T10:01:05.376Z,78.54
2018-07-13T10:02:05.390Z,78.73
2018-07-13T10:03:05.424Z,78.06
2018-07-13T10:04:05.413Z,78.44
2018-07-13T10:05:05.456Z,78.44
2018-07-13T10:06:05.816Z,78.54
2018-07-13T10:07:05.443Z,78.34
2018-07-13T10:08:05.445Z,77.58
2018-07-13T10:09:05.462Z,78.25
2018-07-13T10:10:05.508Z,77.86
2018-07-13T10:11:05.508Z,77.19
2018-07-13T10:12:05.511Z,77.09
2018-07-13T10:13:05.516Z,77.09
2018-07-13T10:14:05.530Z,77.19
2018-07-13T10:15:05.589Z,77.67
2018-07-13T10:16:05.585Z,77.76
2018-07-13T10:17:05.586Z,77.09
2018-07-13T10:18:05.607Z,77.13
2018-07-13T10:19:05.608Z,77.33
2018-07-13T10:20:05.680Z,77.51
2018-07-13T10:21:05.684Z,77.33
2018-07-13T10:22:05.660Z,77.42
2018-07-13T10:23:05.646Z,77.90
2018-07-13T10:24:05.665Z,77.13
2018-07-13T10:25:05.661Z,77.23
2018-07-13T10:26:05.710Z,76.45
2018-07-13T10:27:05.732Z,76.55
2018-07-13T10:28:05.763Z,76.45
2018-07-13T10:29:05.742Z,76.36
2018-07-13T10:30:05.746Z,76.65
2018-07-13T10:31:05.746Z,76.17
2018-07-13T10:32:05.802Z,76.75
2018-07-13T10:33:05.808Z,76.65
2018-07-13T10:34:05.783Z,77.13
2018-07-13T10:35:05.821Z,77.51
2018-07-13T10:36:05.834Z,77.71
2018-07-13T10:37:05.891Z,77.75
2018-07-13T10:38:05.860Z,76.78
2018-07-13T10:39:05.866Z,77.36
2018-07-13T10:40:05.865Z,76.98
2018-07-13T10:41:05.950Z,76.59
2018-07-13T10:42:05.925Z,76.59
2018-07-13T10:43:06.012Z,77.26
2018-07-13T10:44:05.938Z,76.40
2018-07-13T10:45:05.959Z,75.82
2018-07-13T10:46:05.950Z,75.62
2018-07-13T10:47:06.024Z,76.01
2018-07-13T10:48:06.029Z,75.14
2018-07-13T10:49:06.019Z,75.72
2018-07-13T10:50:06.031Z,75.82
2018-07-13T10:51:06.018Z,75.14
2018-07-13T10:52:06.053Z,75.82
2018-07-13T10:53:06.096Z,75.14
2018-07-13T10:54:06.058Z,75.53
2018-07-13T10:55:06.073Z,75.53
2018-07-13T10:56:06.204Z,74.76
2018-07-13T10:57:06.140Z,73.79
2018-07-13T10:58:06.198Z,74.57
2018-07-13T10:59:06.147Z,74.47
2018-07-13T11:00:06.184Z,74.47
2018-07-13T11:01:06.214Z,74.27
2018-07-13T11:02:06.176Z,73.69
2018-07-13T11:03:06.195Z,73.02
2018-07-13T11:04:06.229Z,73.31
2018-07-13T11:05:06.239Z,72.15
2018-07-13T11:06:06.325Z,71.96
2018-07-13T11:07:06.300Z,71.77
2018-07-13T11:08:06.309Z,72.25
2018-07-13T11:09:06.299Z,71.96
2018-07-13T11:10:06.319Z,71.96
2018-07-13T11:11:06.295Z,72.92
2018-07-13T11:12:06.310Z,72.83
2018-07-13T11:13:06.320Z,72.63
2018-07-13T11:14:06.410Z,72.83
2018-07-13T11:15:06.412Z,72.63
2018-07-13T11:16:06.371Z,71.96
2018-07-13T11:17:06.381Z,72.54
2018-07-13T11:18:06.391Z,72.15
2018-07-13T11:19:06.424Z,72.06
2018-07-13T11:20:06.477Z,72.83
2018-07-13T11:21:06.443Z,72.92
2018-07-13T11:22:06.560Z,72.92
2018-07-13T11:23:06.462Z,72.25
2018-07-13T11:24:06.516Z,72.83
2018-07-13T11:25:06.517Z,72.73
2018-07-13T11:26:06.505Z,72.73
2018-07-13T11:27:06.531Z,73.21
2018-07-13T11:28:06.623Z,73.69
2018-07-13T11:29:06.558Z,73.50
2018-07-13T11:30:06.557Z,73.31
2018-07-13T11:31:06.599Z,73.41
2018-07-13T11:32:06.576Z,73.89
2018-07-13T11:33:06.641Z,73.69
2018-07-13T11:34:06.601Z,73.25
2018-07-13T11:35:06.779Z,73.31
2018-07-13T11:36:06.651Z,73.35
2018-07-13T11:37:06.860Z,73.63
2018-07-13T11:38:06.715Z,73.63
2018-07-13T11:39:06.680Z,72.96
2018-07-13T11:40:06.692Z,72.67
2018-07-13T11:41:06.723Z,73.63
2018-07-13T11:42:06.746Z,73.73
2018-07-13T11:43:06.748Z,73.11
2018-07-13T11:44:06.805Z,72.58
2018-07-13T11:45:06.764Z,72.96
2018-07-13T11:46:06.813Z,72.77
2018-07-13T11:47:06.781Z,73.54
2018-07-13T11:48:06.876Z,73.73
2018-07-13T11:49:06.815Z,73.35
2018-07-13T11:50:06.847Z,73.44
2018-07-13T11:51:06.857Z,73.25
2018-07-13T11:52:06.898Z,73.25
2018-07-13T11:53:06.911Z,73.73
2018-07-13T11:54:06.877Z,73.44
2018-07-13T11:55:06.903Z,72.67
2018-07-13T11:56:06.935Z,72.67
2018-07-13T11:57:06.946Z,73.25
2018-07-13T11:58:06.970Z,72.86
2018-07-13T11:59:06.959Z,72.19
2018-07-13T12:00:07.052Z,71.80
2018-07-13T12:01:06.977Z,71.32
2018-07-13T12:02:06.988Z,71.32
2018-07-13T12:03:06.999Z,70.64
2018-07-13T12:04:07.053Z,71.12
2018-07-13T12:05:07.155Z,70.64
2018-07-13T12:06:07.095Z,70.94
2018-07-13T12:07:07.056Z,71.06
2018-07-13T12:08:07.200Z,71.16
2018-07-13T12:09:07.086Z,71.06
2018-07-13T12:10:07.109Z,71.36
2018-07-13T12:11:07.135Z,71.16
2018-07-13T12:12:07.165Z,71.06
2018-07-13T12:13:07.175Z,71.16
2018-07-13T12:14:07.247Z,71.26
2018-07-13T12:15:07.167Z,71.26
2018-07-13T12:16:07.182Z,71.26
2018-07-13T12:17:07.219Z,71.45
2018-07-13T12:18:07.219Z,71.74
2018-07-13T12:19:07.284Z,71.36
2018-07-13T12:20:07.272Z,70.20
2018-07-13T12:21:07.264Z,70.29
2018-07-13T12:22:07.277Z,69.71
2018-07-13T12:23:07.336Z,68.26
2018-07-13T12:24:07.302Z,67.59
2018-07-13T12:25:07.304Z,68.46
2018-07-13T12:26:07.348Z,67.11
2018-07-13T12:27:07.355Z,66.14
2018-07-13T12:28:07.369Z,66.91
2018-07-13T12:29:07.374Z,67.20
2018-07-13T12:30:07.548Z,67.40
2018-07-13T12:31:07.391Z,67.40
2018-07-13T12:32:07.418Z,67.30
2018-07-13T12:33:07.441Z,67.40
2018-07-13T12:34:07.457Z,67.40
2018-07-13T12:35:07.498Z,67.20
2018-07-13T12:36:07.471Z,66.82
2018-07-13T12:37:07.527Z,67.82
2018-07-13T12:38:07.512Z,65.88
2018-07-13T12:39:07.516Z,66.46
2018-07-13T12:40:07.592Z,66.85
2018-07-13T12:41:07.546Z,67.43
2018-07-13T12:42:07.633Z,66.75
2018-07-13T12:43:07.672Z,67.33
2018-07-13T12:44:07.572Z,66.94
2018-07-13T12:45:07.647Z,67.04
2018-07-13T12:46:07.712Z,67.24
2018-07-13T12:47:07.627Z,66.27
2018-07-13T12:48:07.646Z,66.36
2018-07-13T12:49:07.734Z,67.33
2018-07-13T12:50:07.712Z,67.91
2018-07-13T12:51:07.676Z,67.43
2018-07-13T12:52:07.738Z,67.43
2018-07-13T12:53:07.773Z,67.52